sensor_id;sensor_type;location;lat;lon;timestamp;P1;durP1;ratioP1;P2;durP2;ratioP2
30096;SDS011;16915;51.466;3.610;2023-09-12T00:01:22;57.92;;;29.55;;
30096;SDS011;16915;51.466;3.610;2023-09-12T00:03:47;54.28;;;27.83;;
30096;SDS011;16915;51.466;3.610;2023-09-12T00:06:13;58.70;;;28.90;;
30096;SDS011;16915;51.466;3.610;2023-09-12T00:08:38;52.08;;;27.75;;
30096;SDS011;16915;51.466;3.610;2023-09-12T00:11:08;60.95;;;28.77;;
30096;SDS011;16915;51.466;3.610;2023-09-12T00:13:36;49.72;;;27.05;;
30096;SDS011;16915;51.466;3.610;2023-09-12T00:16:03;56.40;;;26.27;;
30096;SDS011;16915;51.466;3.610;2023-09-12T00:18:30;56.85;;;26.35;;
30096;SDS011;16915;51.466;3.610;2023-09-12T00:20:56;44.67;;;24.60;;
30096;SDS011;16915;51.466;3.610;2023-09-12T00:23:22;53.33;;;24.92;;
30096;SDS011;16915;51.466;3.610;2023-09-12T00:25:49;50.03;;;25.17;;
30096;SDS011;16915;51.466;3.610;2023-09-12T00:28:16;53.35;;;27.23;;
30096;SDS011;16915;51.466;3.610;2023-09-12T00:30:42;50.05;;;25.52;;
30096;SDS011;16915;51.466;3.610;2023-09-12T00:33:07;48.65;;;24.92;;
30096;SDS011;16915;51.466;3.610;2023-09-12T00:35:33;57.72;;;25.17;;
30096;SDS011;16915;51.466;3.610;2023-09-12T00:37:58;54.13;;;25.55;;
30096;SDS011;16915;51.466;3.610;2023-09-12T00:40:24;49.20;;;24.65;;
30096;SDS011;16915;51.466;3.610;2023-09-12T00:42:49;51.67;;;25.85;;
30096;SDS011;16915;51.466;3.610;2023-09-12T00:45:15;51.75;;;25.60;;
30096;SDS011;16915;51.466;3.610;2023-09-12T00:47:41;52.33;;;26.15;;
30096;SDS011;16915;51.466;3.610;2023-09-12T00:50:06;46.95;;;25.35;;
30096;SDS011;16915;51.466;3.610;2023-09-12T00:52:34;59.67;;;27.00;;
30096;SDS011;16915;51.466;3.610;2023-09-12T00:55:01;55.00;;;25.80;;
30096;SDS011;16915;51.466;3.610;2023-09-12T00:57:27;55.78;;;25.60;;
30096;SDS011;16915;51.466;3.610;2023-09-12T00:59:53;53.67;;;25.88;;
30096;SDS011;16915;51.466;3.610;2023-09-12T01:02:20;50.38;;;25.38;;
30096;SDS011;16915;51.466;3.610;2023-09-12T01:04:48;53.00;;;25.85;;
30096;SDS011;16915;51.466;3.610;2023-09-12T01:07:14;59.25;;;27.05;;
30096;SDS011;16915;51.466;3.610;2023-09-12T01:09:40;51.50;;;26.42;;
30096;SDS011;16915;51.466;3.610;2023-09-12T01:12:06;57.47;;;27.20;;
30096;SDS011;16915;51.466;3.610;2023-09-12T01:14:32;59.67;;;27.15;;
30096;SDS011;16915;51.466;3.610;2023-09-12T01:16:57;65.47;;;27.60;;
30096;SDS011;16915;51.466;3.610;2023-09-12T01:19:24;63.25;;;28.33;;
30096;SDS011;16915;51.466;3.610;2023-09-12T01:25:00;56.08;;;26.48;;
30096;SDS011;16915;51.466;3.610;2023-09-12T01:27:46;61.13;;;27.30;;
30096;SDS011;16915;51.466;3.610;2023-09-12T01:30:17;66.95;;;30.10;;
30096;SDS011;16915;51.466;3.610;2023-09-12T01:32:45;64.50;;;29.88;;
30096;SDS011;16915;51.466;3.610;2023-09-12T01:35:11;75.28;;;32.70;;
30096;SDS011;16915;51.466;3.610;2023-09-12T01:37:37;66.75;;;29.77;;
30096;SDS011;16915;51.466;3.610;2023-09-12T01:40:02;73.68;;;31.90;;
30096;SDS011;16915;51.466;3.610;2023-09-12T01:42:36;72.20;;;31.77;;
30096;SDS011;16915;51.466;3.610;2023-09-12T01:45:04;74.50;;;32.40;;
30096;SDS011;16915;51.466;3.610;2023-09-12T01:47:32;71.85;;;31.45;;
30096;SDS011;16915;51.466;3.610;2023-09-12T01:49:59;65.07;;;29.58;;
30096;SDS011;16915;51.466;3.610;2023-09-12T01:52:27;69.43;;;31.60;;
30096;SDS011;16915;51.466;3.610;2023-09-12T01:54:53;64.90;;;31.40;;
30096;SDS011;16915;51.466;3.610;2023-09-12T01:57:19;66.53;;;30.13;;
30096;SDS011;16915;51.466;3.610;2023-09-12T01:59:46;56.88;;;28.60;;
30096;SDS011;16915;51.466;3.610;2023-09-12T02:02:13;60.58;;;28.88;;
30096;SDS011;16915;51.466;3.610;2023-09-12T02:04:39;61.38;;;30.17;;
30096;SDS011;16915;51.466;3.610;2023-09-12T02:07:04;61.15;;;28.25;;
30096;SDS011;16915;51.466;3.610;2023-09-12T02:09:30;64.85;;;30.25;;
30096;SDS011;16915;51.466;3.610;2023-09-12T02:11:56;55.42;;;28.83;;
30096;SDS011;16915;51.466;3.610;2023-09-12T02:14:21;65.05;;;30.35;;
30096;SDS011;16915;51.466;3.610;2023-09-12T02:16:47;63.10;;;30.50;;
30096;SDS011;16915;51.466;3.610;2023-09-12T02:19:12;61.22;;;28.50;;
30096;SDS011;16915;51.466;3.610;2023-09-12T02:21:38;61.13;;;29.65;;
30096;SDS011;16915;51.466;3.610;2023-09-12T02:24:04;61.28;;;30.58;;
30096;SDS011;16915;51.466;3.610;2023-09-12T02:26:29;60.42;;;30.48;;
30096;SDS011;16915;51.466;3.610;2023-09-12T02:28:56;69.45;;;32.47;;
30096;SDS011;16915;51.466;3.610;2023-09-12T02:31:22;67.25;;;30.52;;
30096;SDS011;16915;51.466;3.610;2023-09-12T02:33:47;65.22;;;30.48;;
30096;SDS011;16915;51.466;3.610;2023-09-12T02:36:13;67.75;;;31.38;;
30096;SDS011;16915;51.466;3.610;2023-09-12T02:38:38;67.28;;;30.00;;
30096;SDS011;16915;51.466;3.610;2023-09-12T02:41:04;64.78;;;30.00;;
30096;SDS011;16915;51.466;3.610;2023-09-12T02:43:29;69.68;;;31.60;;
30096;SDS011;16915;51.466;3.610;2023-09-12T02:45:55;70.05;;;30.67;;
30096;SDS011;16915;51.466;3.610;2023-09-12T02:48:21;61.75;;;29.75;;
30096;SDS011;16915;51.466;3.610;2023-09-12T02:50:46;62.25;;;29.85;;
30096;SDS011;16915;51.466;3.610;2023-09-12T02:53:12;58.90;;;29.35;;
30096;SDS011;16915;51.466;3.610;2023-09-12T02:55:41;65.07;;;29.10;;
30096;SDS011;16915;51.466;3.610;2023-09-12T02:58:07;59.00;;;28.40;;
30096;SDS011;16915;51.466;3.610;2023-09-12T03:00:37;55.22;;;28.02;;
30096;SDS011;16915;51.466;3.610;2023-09-12T03:05:30;60.88;;;27.80;;
30096;SDS011;16915;51.466;3.610;2023-09-12T03:07:55;56.17;;;27.38;;
30096;SDS011;16915;51.466;3.610;2023-09-12T03:10:24;56.08;;;27.08;;
30096;SDS011;16915;51.466;3.610;2023-09-12T03:12:49;49.50;;;26.95;;
30096;SDS011;16915;51.466;3.610;2023-09-12T03:15:15;61.90;;;28.58;;
30096;SDS011;16915;51.466;3.610;2023-09-12T03:17:41;62.28;;;28.73;;
30096;SDS011;16915;51.466;3.610;2023-09-12T03:20:06;67.47;;;29.55;;
30096;SDS011;16915;51.466;3.610;2023-09-12T03:22:34;66.80;;;29.88;;
30096;SDS011;16915;51.466;3.610;2023-09-12T03:25:03;67.70;;;30.75;;
30096;SDS011;16915;51.466;3.610;2023-09-12T03:27:29;70.78;;;31.30;;
30096;SDS011;16915;51.466;3.610;2023-09-12T03:29:55;67.40;;;29.05;;
30096;SDS011;16915;51.466;3.610;2023-09-12T03:32:21;70.63;;;31.55;;
30096;SDS011;16915;51.466;3.610;2023-09-12T03:34:46;86.32;;;32.38;;
30096;SDS011;16915;51.466;3.610;2023-09-12T03:37:12;97.97;;;33.67;;
30096;SDS011;16915;51.466;3.610;2023-09-12T03:39:37;92.03;;;34.30;;
30096;SDS011;16915;51.466;3.610;2023-09-12T03:42:03;97.30;;;34.42;;
30096;SDS011;16915;51.466;3.610;2023-09-12T03:44:29;103.30;;;34.92;;
30096;SDS011;16915;51.466;3.610;2023-09-12T03:46:55;97.72;;;33.92;;
30096;SDS011;16915;51.466;3.610;2023-09-12T03:49:21;104.70;;;36.58;;
30096;SDS011;16915;51.466;3.610;2023-09-12T03:51:47;110.25;;;35.42;;
30096;SDS011;16915;51.466;3.610;2023-09-12T03:54:13;105.97;;;33.60;;
30096;SDS011;16915;51.466;3.610;2023-09-12T03:56:38;91.65;;;33.22;;
30096;SDS011;16915;51.466;3.610;2023-09-12T03:59:04;99.72;;;34.38;;
30096;SDS011;16915;51.466;3.610;2023-09-12T04:01:29;92.22;;;32.22;;
30096;SDS011;16915;51.466;3.610;2023-09-12T04:03:55;96.00;;;33.20;;
30096;SDS011;16915;51.466;3.610;2023-09-12T04:06:21;95.03;;;33.85;;
30096;SDS011;16915;51.466;3.610;2023-09-12T04:08:46;104.43;;;34.63;;
30096;SDS011;16915;51.466;3.610;2023-09-12T04:11:12;105.80;;;34.92;;
30096;SDS011;16915;51.466;3.610;2023-09-12T04:13:37;105.35;;;35.28;;
30096;SDS011;16915;51.466;3.610;2023-09-12T04:16:03;103.07;;;34.88;;
30096;SDS011;16915;51.466;3.610;2023-09-12T04:18:29;112.28;;;35.45;;
30096;SDS011;16915;51.466;3.610;2023-09-12T04:20:54;106.00;;;34.90;;
30096;SDS011;16915;51.466;3.610;2023-09-12T04:23:22;119.57;;;35.78;;
30096;SDS011;16915;51.466;3.610;2023-09-12T04:25:47;117.10;;;35.45;;
30096;SDS011;16915;51.466;3.610;2023-09-12T04:28:13;117.80;;;36.90;;
30096;SDS011;16915;51.466;3.610;2023-09-12T04:30:38;108.95;;;35.92;;
30096;SDS011;16915;51.466;3.610;2023-09-12T04:33:04;114.07;;;34.20;;
30096;SDS011;16915;51.466;3.610;2023-09-12T04:35:32;124.32;;;36.38;;
30096;SDS011;16915;51.466;3.610;2023-09-12T04:37:58;121.50;;;38.33;;
30096;SDS011;16915;51.466;3.610;2023-09-12T04:40:24;109.05;;;33.58;;
30096;SDS011;16915;51.466;3.610;2023-09-12T04:42:50;109.82;;;35.60;;
30096;SDS011;16915;51.466;3.610;2023-09-12T04:45:15;112.72;;;35.42;;
30096;SDS011;16915;51.466;3.610;2023-09-12T04:47:41;110.45;;;33.88;;
30096;SDS011;16915;51.466;3.610;2023-09-12T04:50:06;109.35;;;35.35;;
30096;SDS011;16915;51.466;3.610;2023-09-12T04:52:32;109.78;;;32.60;;
30096;SDS011;16915;51.466;3.610;2023-09-12T04:54:58;94.85;;;33.45;;
30096;SDS011;16915;51.466;3.610;2023-09-12T04:57:23;95.55;;;30.35;;
30096;SDS011;16915;51.466;3.610;2023-09-12T04:59:50;106.22;;;34.53;;
30096;SDS011;16915;51.466;3.610;2023-09-12T05:02:16;106.97;;;33.10;;
30096;SDS011;16915;51.466;3.610;2023-09-12T05:04:42;107.75;;;33.58;;
30096;SDS011;16915;51.466;3.610;2023-09-12T05:07:08;114.28;;;33.70;;
30096;SDS011;16915;51.466;3.610;2023-09-12T05:09:33;108.32;;;34.15;;
30096;SDS011;16915;51.466;3.610;2023-09-12T05:11:59;118.78;;;35.03;;
30096;SDS011;16915;51.466;3.610;2023-09-12T05:14:24;124.00;;;34.78;;
30096;SDS011;16915;51.466;3.610;2023-09-12T05:16:50;119.90;;;34.85;;
30096;SDS011;16915;51.466;3.610;2023-09-12T05:19:16;118.25;;;34.58;;
30096;SDS011;16915;51.466;3.610;2023-09-12T05:21:41;125.50;;;35.35;;
30096;SDS011;16915;51.466;3.610;2023-09-12T05:24:07;128.40;;;34.83;;
30096;SDS011;16915;51.466;3.610;2023-09-12T05:26:32;114.80;;;33.35;;
30096;SDS011;16915;51.466;3.610;2023-09-12T05:28:58;131.13;;;33.85;;
30096;SDS011;16915;51.466;3.610;2023-09-12T05:31:24;110.93;;;34.35;;
30096;SDS011;16915;51.466;3.610;2023-09-12T05:33:49;114.60;;;33.00;;
30096;SDS011;16915;51.466;3.610;2023-09-12T05:36:15;106.22;;;32.80;;
30096;SDS011;16915;51.466;3.610;2023-09-12T05:38:40;111.05;;;32.10;;
30096;SDS011;16915;51.466;3.610;2023-09-12T05:41:06;118.88;;;34.30;;
30096;SDS011;16915;51.466;3.610;2023-09-12T05:43:32;108.97;;;33.83;;
30096;SDS011;16915;51.466;3.610;2023-09-12T05:45:57;110.90;;;33.17;;
30096;SDS011;16915;51.466;3.610;2023-09-12T05:48:23;102.63;;;31.00;;
30096;SDS011;16915;51.466;3.610;2023-09-12T05:50:48;102.22;;;31.48;;
30096;SDS011;16915;51.466;3.610;2023-09-12T05:53:14;104.28;;;31.38;;
30096;SDS011;16915;51.466;3.610;2023-09-12T05:55:40;104.47;;;30.92;;
30096;SDS011;16915;51.466;3.610;2023-09-12T05:58:05;92.75;;;28.50;;
30096;SDS011;16915;51.466;3.610;2023-09-12T06:00:31;78.30;;;25.55;;
30096;SDS011;16915;51.466;3.610;2023-09-12T06:02:57;90.15;;;27.67;;
30096;SDS011;16915;51.466;3.610;2023-09-12T06:05:23;88.57;;;27.77;;
30096;SDS011;16915;51.466;3.610;2023-09-12T06:07:49;86.88;;;28.00;;
30096;SDS011;16915;51.466;3.610;2023-09-12T06:10:15;80.82;;;27.63;;
30096;SDS011;16915;51.466;3.610;2023-09-12T06:12:40;79.95;;;26.10;;
30096;SDS011;16915;51.466;3.610;2023-09-12T06:15:06;72.80;;;26.75;;
30096;SDS011;16915;51.466;3.610;2023-09-12T06:17:32;75.57;;;25.63;;
30096;SDS011;16915;51.466;3.610;2023-09-12T06:19:58;72.60;;;25.38;;
30096;SDS011;16915;51.466;3.610;2023-09-12T06:22:24;74.45;;;25.25;;
30096;SDS011;16915;51.466;3.610;2023-09-12T06:24:50;64.75;;;24.50;;
30096;SDS011;16915;51.466;3.610;2023-09-12T06:27:16;68.85;;;24.60;;
30096;SDS011;16915;51.466;3.610;2023-09-12T06:29:45;63.95;;;24.27;;
30096;SDS011;16915;51.466;3.610;2023-09-12T06:32:13;71.43;;;25.95;;
30096;SDS011;16915;51.466;3.610;2023-09-12T06:34:44;66.68;;;23.55;;
30096;SDS011;16915;51.466;3.610;2023-09-12T06:37:10;60.67;;;22.70;;
30096;SDS011;16915;51.466;3.610;2023-09-12T06:39:36;63.83;;;24.23;;
30096;SDS011;16915;51.466;3.610;2023-09-12T06:42:02;70.40;;;24.70;;
30096;SDS011;16915;51.466;3.610;2023-09-12T06:44:28;52.97;;;22.10;;
30096;SDS011;16915;51.466;3.610;2023-09-12T06:46:54;62.28;;;23.70;;
30096;SDS011;16915;51.466;3.610;2023-09-12T06:49:19;64.30;;;23.95;;
30096;SDS011;16915;51.466;3.610;2023-09-12T06:51:45;61.50;;;23.98;;
30096;SDS011;16915;51.466;3.610;2023-09-12T06:54:10;62.40;;;23.17;;
30096;SDS011;16915;51.466;3.610;2023-09-12T06:56:37;60.75;;;22.70;;
30096;SDS011;16915;51.466;3.610;2023-09-12T06:59:03;60.15;;;22.25;;
30096;SDS011;16915;51.466;3.610;2023-09-12T07:01:29;60.35;;;22.58;;
30096;SDS011;16915;51.466;3.610;2023-09-12T07:03:55;54.60;;;21.50;;
30096;SDS011;16915;51.466;3.610;2023-09-12T07:06:21;47.85;;;20.15;;
30096;SDS011;16915;51.466;3.610;2023-09-12T07:08:47;47.42;;;20.50;;
30096;SDS011;16915;51.466;3.610;2023-09-12T07:11:13;55.97;;;22.33;;
30096;SDS011;16915;51.466;3.610;2023-09-12T07:13:39;50.95;;;21.33;;
30096;SDS011;16915;51.466;3.610;2023-09-12T07:16:04;55.03;;;22.92;;
30096;SDS011;16915;51.466;3.610;2023-09-12T07:18:31;50.63;;;22.33;;
30096;SDS011;16915;51.466;3.610;2023-09-12T07:21:00;54.50;;;21.80;;
30096;SDS011;16915;51.466;3.610;2023-09-12T07:23:27;57.28;;;23.20;;
30096;SDS011;16915;51.466;3.610;2023-09-12T07:25:53;59.80;;;22.05;;
30096;SDS011;16915;51.466;3.610;2023-09-12T07:28:22;61.13;;;23.60;;
30096;SDS011;16915;51.466;3.610;2023-09-12T07:30:48;59.45;;;22.35;;
30096;SDS011;16915;51.466;3.610;2023-09-12T07:33:14;59.05;;;21.45;;
30096;SDS011;16915;51.466;3.610;2023-09-12T07:35:39;58.90;;;22.90;;
30096;SDS011;16915;51.466;3.610;2023-09-12T07:38:05;57.80;;;23.13;;
30096;SDS011;16915;51.466;3.610;2023-09-12T07:40:30;62.85;;;23.23;;
30096;SDS011;16915;51.466;3.610;2023-09-12T07:42:56;56.17;;;22.27;;
30096;SDS011;16915;51.466;3.610;2023-09-12T07:45:22;55.78;;;21.50;;
30096;SDS011;16915;51.466;3.610;2023-09-12T07:47:47;61.85;;;22.73;;
30096;SDS011;16915;51.466;3.610;2023-09-12T07:50:13;52.75;;;22.77;;
30096;SDS011;16915;51.466;3.610;2023-09-12T07:52:39;55.58;;;22.50;;
30096;SDS011;16915;51.466;3.610;2023-09-12T07:55:04;53.92;;;21.15;;
30096;SDS011;16915;51.466;3.610;2023-09-12T07:57:32;52.80;;;21.80;;
30096;SDS011;16915;51.466;3.610;2023-09-12T07:59:58;42.85;;;19.05;;
30096;SDS011;16915;51.466;3.610;2023-09-12T08:02:23;42.65;;;19.10;;
30096;SDS011;16915;51.466;3.610;2023-09-12T08:04:49;39.80;;;18.33;;
30096;SDS011;16915;51.466;3.610;2023-09-12T08:07:24;37.50;;;18.77;;
30096;SDS011;16915;51.466;3.610;2023-09-12T08:09:50;37.75;;;17.52;;
30096;SDS011;16915;51.466;3.610;2023-09-12T08:12:18;35.92;;;16.90;;
30096;SDS011;16915;51.466;3.610;2023-09-12T08:14:44;36.67;;;18.02;;
30096;SDS011;16915;51.466;3.610;2023-09-12T08:17:11;36.63;;;17.23;;
30096;SDS011;16915;51.466;3.610;2023-09-12T08:19:37;34.75;;;16.60;;
30096;SDS011;16915;51.466;3.610;2023-09-12T08:22:03;34.95;;;16.92;;
30096;SDS011;16915;51.466;3.610;2023-09-12T08:24:28;30.42;;;16.30;;
30096;SDS011;16915;51.466;3.610;2023-09-12T08:26:54;32.88;;;16.40;;
30096;SDS011;16915;51.466;3.610;2023-09-12T08:29:20;27.52;;;16.52;;
30096;SDS011;16915;51.466;3.610;2023-09-12T08:31:46;28.23;;;16.05;;
30096;SDS011;16915;51.466;3.610;2023-09-12T08:34:12;31.75;;;16.60;;
30096;SDS011;16915;51.466;3.610;2023-09-12T08:36:38;26.88;;;15.43;;
30096;SDS011;16915;51.466;3.610;2023-09-12T08:39:04;26.02;;;15.40;;
30096;SDS011;16915;51.466;3.610;2023-09-12T08:41:33;27.90;;;16.95;;
30096;SDS011;16915;51.466;3.610;2023-09-12T08:43:59;28.45;;;16.90;;
30096;SDS011;16915;51.466;3.610;2023-09-12T08:46:26;29.40;;;17.48;;
30096;SDS011;16915;51.466;3.610;2023-09-12T08:48:55;31.85;;;18.55;;
30096;SDS011;16915;51.466;3.610;2023-09-12T08:51:22;31.80;;;18.48;;
30096;SDS011;16915;51.466;3.610;2023-09-12T08:53:51;32.28;;;18.33;;
30096;SDS011;16915;51.466;3.610;2023-09-12T08:56:20;32.78;;;19.02;;
30096;SDS011;16915;51.466;3.610;2023-09-12T08:58:45;33.42;;;18.55;;
30096;SDS011;16915;51.466;3.610;2023-09-12T09:01:12;33.90;;;19.77;;
30096;SDS011;16915;51.466;3.610;2023-09-12T09:03:42;30.27;;;18.60;;
30096;SDS011;16915;51.466;3.610;2023-09-12T09:06:08;34.88;;;20.23;;
30096;SDS011;16915;51.466;3.610;2023-09-12T09:08:35;38.85;;;20.58;;
30096;SDS011;16915;51.466;3.610;2023-09-12T09:11:02;40.13;;;20.20;;
30096;SDS011;16915;51.466;3.610;2023-09-12T09:13:28;38.63;;;19.60;;
30096;SDS011;16915;51.466;3.610;2023-09-12T09:21:19;44.78;;;23.13;;
30096;SDS011;16915;51.466;3.610;2023-09-12T09:23:49;46.03;;;22.70;;
30096;SDS011;16915;51.466;3.610;2023-09-12T09:26:15;40.50;;;21.65;;
30096;SDS011;16915;51.466;3.610;2023-09-12T09:28:40;47.20;;;22.67;;
30096;SDS011;16915;51.466;3.610;2023-09-12T09:31:10;42.67;;;22.05;;
30096;SDS011;16915;51.466;3.610;2023-09-12T09:33:37;46.53;;;22.13;;
30096;SDS011;16915;51.466;3.610;2023-09-12T09:36:04;44.30;;;22.58;;
30096;SDS011;16915;51.466;3.610;2023-09-12T09:38:31;39.90;;;22.55;;
30096;SDS011;16915;51.466;3.610;2023-09-12T09:40:56;38.85;;;22.42;;
30096;SDS011;16915;51.466;3.610;2023-09-12T09:43:22;38.45;;;22.30;;
30096;SDS011;16915;51.466;3.610;2023-09-12T09:45:49;39.63;;;21.98;;
30096;SDS011;16915;51.466;3.610;2023-09-12T09:48:19;34.92;;;20.55;;
30096;SDS011;16915;51.466;3.610;2023-09-12T09:50:46;39.35;;;23.05;;
30096;SDS011;16915;51.466;3.610;2023-09-12T09:53:11;36.25;;;20.88;;
30096;SDS011;16915;51.466;3.610;2023-09-12T09:55:37;35.58;;;19.95;;
30096;SDS011;16915;51.466;3.610;2023-09-12T09:58:06;34.90;;;20.65;;
30096;SDS011;16915;51.466;3.610;2023-09-12T10:00:33;34.13;;;19.85;;
30096;SDS011;16915;51.466;3.610;2023-09-12T10:03:01;30.17;;;19.35;;
30096;SDS011;16915;51.466;3.610;2023-09-12T10:05:29;26.63;;;18.38;;
30096;SDS011;16915;51.466;3.610;2023-09-12T10:07:56;26.35;;;17.83;;
30096;SDS011;16915;51.466;3.610;2023-09-12T10:10:25;28.60;;;19.15;;
30096;SDS011;16915;51.466;3.610;2023-09-12T10:12:55;28.60;;;17.65;;
30096;SDS011;16915;51.466;3.610;2023-09-12T10:15:23;27.73;;;18.77;;
30096;SDS011;16915;51.466;3.610;2023-09-12T10:17:56;26.80;;;18.63;;
30096;SDS011;16915;51.466;3.610;2023-09-12T10:20:25;26.38;;;18.90;;
30096;SDS011;16915;51.466;3.610;2023-09-12T10:23:08;23.13;;;16.92;;
30096;SDS011;16915;51.466;3.610;2023-09-12T10:25:48;26.65;;;17.90;;
30096;SDS011;16915;51.466;3.610;2023-09-12T10:28:15;23.83;;;17.52;;
30096;SDS011;16915;51.466;3.610;2023-09-12T10:30:43;22.58;;;17.13;;
30096;SDS011;16915;51.466;3.610;2023-09-12T10:33:09;24.02;;;17.92;;
30096;SDS011;16915;51.466;3.610;2023-09-12T10:35:36;21.63;;;17.55;;
30096;SDS011;16915;51.466;3.610;2023-09-12T10:38:03;24.33;;;16.98;;
30096;SDS011;16915;51.466;3.610;2023-09-12T10:40:34;23.77;;;17.75;;
30096;SDS011;16915;51.466;3.610;2023-09-12T10:43:02;22.20;;;18.15;;
30096;SDS011;16915;51.466;3.610;2023-09-12T10:45:33;25.85;;;17.55;;
30096;SDS011;16915;51.466;3.610;2023-09-12T10:48:00;23.27;;;18.60;;
30096;SDS011;16915;51.466;3.610;2023-09-12T10:50:26;24.98;;;18.15;;
30096;SDS011;16915;51.466;3.610;2023-09-12T10:52:53;26.38;;;19.13;;
30096;SDS011;16915;51.466;3.610;2023-09-12T10:55:18;26.38;;;18.80;;
30096;SDS011;16915;51.466;3.610;2023-09-12T10:58:00;25.27;;;18.58;;
30096;SDS011;16915;51.466;3.610;2023-09-12T11:00:30;28.75;;;19.95;;
30096;SDS011;16915;51.466;3.610;2023-09-12T11:02:59;26.48;;;19.98;;
30096;SDS011;16915;51.466;3.610;2023-09-12T11:05:52;27.05;;;19.83;;
30096;SDS011;16915;51.466;3.610;2023-09-12T11:08:19;28.77;;;21.05;;
30096;SDS011;16915;51.466;3.610;2023-09-12T11:10:45;32.17;;;20.65;;
30096;SDS011;16915;51.466;3.610;2023-09-12T11:16:12;31.88;;;19.83;;
30096;SDS011;16915;51.466;3.610;2023-09-12T11:21:40;29.27;;;20.10;;
30096;SDS011;16915;51.466;3.610;2023-09-12T11:24:07;32.00;;;20.13;;
30096;SDS011;16915;51.466;3.610;2023-09-12T11:26:33;26.65;;;19.13;;
30096;SDS011;16915;51.466;3.610;2023-09-12T11:29:10;29.75;;;20.27;;
30096;SDS011;16915;51.466;3.610;2023-09-12T11:31:37;28.10;;;19.30;;
30096;SDS011;16915;51.466;3.610;2023-09-12T11:34:08;25.95;;;17.15;;
30096;SDS011;16915;51.466;3.610;2023-09-12T11:36:41;24.60;;;17.95;;
30096;SDS011;16915;51.466;3.610;2023-09-12T11:39:23;26.73;;;18.17;;
30096;SDS011;16915;51.466;3.610;2023-09-12T11:41:50;23.55;;;16.88;;
30096;SDS011;16915;51.466;3.610;2023-09-12T11:44:16;26.27;;;18.45;;
30096;SDS011;16915;51.466;3.610;2023-09-12T11:46:43;23.25;;;18.05;;
30096;SDS011;16915;51.466;3.610;2023-09-12T11:49:14;25.67;;;16.58;;
30096;SDS011;16915;51.466;3.610;2023-09-12T11:52:14;24.00;;;16.95;;
30096;SDS011;16915;51.466;3.610;2023-09-12T11:54:45;20.92;;;15.38;;
30096;SDS011;16915;51.466;3.610;2023-09-12T11:57:12;21.75;;;15.25;;
30096;SDS011;16915;51.466;3.610;2023-09-12T11:59:39;22.35;;;14.55;;
30096;SDS011;16915;51.466;3.610;2023-09-12T12:02:07;22.00;;;15.93;;
30096;SDS011;16915;51.466;3.610;2023-09-12T12:04:33;21.50;;;15.13;;
30096;SDS011;16915;51.466;3.610;2023-09-12T12:06:59;24.05;;;15.75;;
30096;SDS011;16915;51.466;3.610;2023-09-12T12:09:26;28.45;;;19.10;;
30096;SDS011;16915;51.466;3.610;2023-09-12T12:11:52;28.25;;;18.65;;
30096;SDS011;16915;51.466;3.610;2023-09-12T12:14:18;19.27;;;14.45;;
30096;SDS011;16915;51.466;3.610;2023-09-12T12:16:45;21.02;;;14.20;;
30096;SDS011;16915;51.466;3.610;2023-09-12T12:19:11;19.08;;;13.68;;
30096;SDS011;16915;51.466;3.610;2023-09-12T12:21:41;20.63;;;15.70;;
30096;SDS011;16915;51.466;3.610;2023-09-12T12:24:09;25.85;;;17.92;;
30096;SDS011;16915;51.466;3.610;2023-09-12T12:26:37;27.88;;;19.85;;
30096;SDS011;16915;51.466;3.610;2023-09-12T12:29:05;29.23;;;19.95;;
30096;SDS011;16915;51.466;3.610;2023-09-12T12:31:31;31.42;;;19.85;;
30096;SDS011;16915;51.466;3.610;2023-09-12T12:33:56;29.88;;;20.63;;
30096;SDS011;16915;51.466;3.610;2023-09-12T12:36:23;25.52;;;16.98;;
30096;SDS011;16915;51.466;3.610;2023-09-12T12:38:49;22.60;;;15.63;;
30096;SDS011;16915;51.466;3.610;2023-09-12T12:41:16;21.60;;;14.52;;
30096;SDS011;16915;51.466;3.610;2023-09-12T12:43:48;23.67;;;15.40;;
30096;SDS011;16915;51.466;3.610;2023-09-12T12:46:16;20.83;;;15.00;;
30096;SDS011;16915;51.466;3.610;2023-09-12T12:48:44;19.88;;;14.65;;
30096;SDS011;16915;51.466;3.610;2023-09-12T12:51:14;21.90;;;13.90;;
30096;SDS011;16915;51.466;3.610;2023-09-12T12:53:42;18.02;;;13.88;;
30096;SDS011;16915;51.466;3.610;2023-09-12T12:56:17;18.20;;;14.25;;
30096;SDS011;16915;51.466;3.610;2023-09-12T12:59:06;17.95;;;14.63;;
30096;SDS011;16915;51.466;3.610;2023-09-12T13:01:34;20.17;;;14.73;;
30096;SDS011;16915;51.466;3.610;2023-09-12T13:04:00;22.45;;;14.77;;
30096;SDS011;16915;51.466;3.610;2023-09-12T13:06:26;20.15;;;15.23;;
30096;SDS011;16915;51.466;3.610;2023-09-12T13:08:55;21.25;;;15.15;;
30096;SDS011;16915;51.466;3.610;2023-09-12T13:11:22;22.25;;;15.38;;
30096;SDS011;16915;51.466;3.610;2023-09-12T13:13:48;20.45;;;15.68;;
30096;SDS011;16915;51.466;3.610;2023-09-12T13:16:14;20.60;;;15.27;;
30096;SDS011;16915;51.466;3.610;2023-09-12T13:18:40;23.10;;;16.20;;
30096;SDS011;16915;51.466;3.610;2023-09-12T13:21:06;22.80;;;15.93;;
30096;SDS011;16915;51.466;3.610;2023-09-12T13:23:35;21.30;;;14.15;;
30096;SDS011;16915;51.466;3.610;2023-09-12T13:26:02;21.33;;;14.45;;
30096;SDS011;16915;51.466;3.610;2023-09-12T13:28:28;17.10;;;12.25;;
30096;SDS011;16915;51.466;3.610;2023-09-12T13:30:54;14.15;;;12.05;;
30096;SDS011;16915;51.466;3.610;2023-09-12T13:33:20;13.63;;;11.18;;
30096;SDS011;16915;51.466;3.610;2023-09-12T13:35:48;12.25;;;10.35;;
30096;SDS011;16915;51.466;3.610;2023-09-12T13:38:14;13.77;;;10.25;;
30096;SDS011;16915;51.466;3.610;2023-09-12T13:40:41;10.18;;;9.15;;
30096;SDS011;16915;51.466;3.610;2023-09-12T13:43:08;10.82;;;8.85;;
30096;SDS011;16915;51.466;3.610;2023-09-12T13:45:34;12.57;;;8.50;;
30096;SDS011;16915;51.466;3.610;2023-09-12T13:48:01;10.05;;;8.93;;
30096;SDS011;16915;51.466;3.610;2023-09-12T13:50:28;13.52;;;8.48;;
30096;SDS011;16915;51.466;3.610;2023-09-12T13:52:54;10.85;;;8.27;;
30096;SDS011;16915;51.466;3.610;2023-09-12T13:55:21;9.68;;;8.70;;
30096;SDS011;16915;51.466;3.610;2023-09-12T13:57:47;11.05;;;8.73;;
30096;SDS011;16915;51.466;3.610;2023-09-12T14:00:13;11.32;;;8.57;;
30096;SDS011;16915;51.466;3.610;2023-09-12T14:02:39;8.27;;;7.30;;
30096;SDS011;16915;51.466;3.610;2023-09-12T14:05:05;9.40;;;7.80;;
30096;SDS011;16915;51.466;3.610;2023-09-12T14:07:30;8.77;;;6.88;;
30096;SDS011;16915;51.466;3.610;2023-09-12T14:09:56;9.68;;;7.28;;
30096;SDS011;16915;51.466;3.610;2023-09-12T14:12:22;7.97;;;7.18;;
30096;SDS011;16915;51.466;3.610;2023-09-12T14:14:48;8.77;;;7.97;;
30096;SDS011;16915;51.466;3.610;2023-09-12T14:17:14;8.10;;;7.38;;
30096;SDS011;16915;51.466;3.610;2023-09-12T14:19:39;9.32;;;7.13;;
30096;SDS011;16915;51.466;3.610;2023-09-12T14:22:05;8.98;;;7.30;;
30096;SDS011;16915;51.466;3.610;2023-09-12T14:24:31;7.93;;;7.15;;
30096;SDS011;16915;51.466;3.610;2023-09-12T14:26:57;9.40;;;8.40;;
30096;SDS011;16915;51.466;3.610;2023-09-12T14:29:22;9.32;;;7.93;;
30096;SDS011;16915;51.466;3.610;2023-09-12T14:31:49;9.32;;;7.00;;
30096;SDS011;16915;51.466;3.610;2023-09-12T14:34:17;8.27;;;6.65;;
30096;SDS011;16915;51.466;3.610;2023-09-12T14:36:43;13.63;;;7.32;;